sensor_id;sensor_type;location;lat;lon;timestamp;P1;durP1;ratioP1;P2;durP2;ratioP2
21589;SDS011;10957;50.968;6.828;2023-04-24T00:03:42;4.50;;;4.30;;
21589;SDS011;10957;50.968;6.828;2023-04-24T00:08:43;4.43;;;4.22;;
21589;SDS011;10957;50.968;6.828;2023-04-24T00:13:45;4.50;;;4.30;;
21589;SDS011;10957;50.968;6.828;2023-04-24T00:18:46;4.32;;;4.07;;
21589;SDS011;10957;50.968;6.828;2023-04-24T00:23:48;4.20;;;4.00;;
21589;SDS011;10957;50.968;6.828;2023-04-24T00:28:49;4.35;;;4.15;;
21589;SDS011;10957;50.968;6.828;2023-04-24T00:33:50;4.10;;;3.90;;
21589;SDS011;10957;50.968;6.828;2023-04-24T00:38:54;3.88;;;3.67;;
21589;SDS011;10957;50.968;6.828;2023-04-24T00:43:56;3.70;;;3.60;;
21589;SDS011;10957;50.968;6.828;2023-04-24T00:48:57;3.85;;;3.75;;
21589;SDS011;10957;50.968;6.828;2023-04-24T00:54:00;3.80;;;3.70;;
21589;SDS011;10957;50.968;6.828;2023-04-24T00:59:03;3.80;;;3.70;;
21589;SDS011;10957;50.968;6.828;2023-04-24T01:04:05;3.70;;;3.60;;
21589;SDS011;10957;50.968;6.828;2023-04-24T01:09:09;3.60;;;3.50;;
21589;SDS011;10957;50.968;6.828;2023-04-24T01:14:12;3.40;;;3.30;;
21589;SDS011;10957;50.968;6.828;2023-04-24T01:19:14;3.28;;;3.17;;
21589;SDS011;10957;50.968;6.828;2023-04-24T01:24:16;3.47;;;3.38;;
21589;SDS011;10957;50.968;6.828;2023-04-24T01:29:19;3.15;;;3.05;;
21589;SDS011;10957;50.968;6.828;2023-04-24T01:34:21;3.28;;;3.17;;
21589;SDS011;10957;50.968;6.828;2023-04-24T01:39:22;3.25;;;3.15;;
21589;SDS011;10957;50.968;6.828;2023-04-24T01:44:28;3.20;;;3.10;;
21589;SDS011;10957;50.968;6.828;2023-04-24T01:49:29;3.30;;;3.20;;
21589;SDS011;10957;50.968;6.828;2023-04-24T01:54:30;3.30;;;3.20;;
21589;SDS011;10957;50.968;6.828;2023-04-24T01:59:32;3.33;;;3.22;;
21589;SDS011;10957;50.968;6.828;2023-04-24T02:04:35;3.17;;;3.08;;
21589;SDS011;10957;50.968;6.828;2023-04-24T02:09:36;3.40;;;3.30;;
21589;SDS011;10957;50.968;6.828;2023-04-24T02:14:37;3.70;;;3.50;;
21589;SDS011;10957;50.968;6.828;2023-04-24T02:19:39;3.35;;;3.25;;
21589;SDS011;10957;50.968;6.828;2023-04-24T02:24:40;3.95;;;3.78;;
21589;SDS011;10957;50.968;6.828;2023-04-24T02:29:42;3.20;;;3.10;;
21589;SDS011;10957;50.968;6.828;2023-04-24T02:34:43;3.50;;;3.40;;
21589;SDS011;10957;50.968;6.828;2023-04-24T02:39:44;3.42;;;3.33;;
21589;SDS011;10957;50.968;6.828;2023-04-24T02:44:46;3.58;;;3.40;;
21589;SDS011;10957;50.968;6.828;2023-04-24T02:49:47;3.67;;;3.47;;
21589;SDS011;10957;50.968;6.828;2023-04-24T02:54:48;3.00;;;2.90;;
21589;SDS011;10957;50.968;6.828;2023-04-24T02:59:50;3.55;;;3.38;;
21589;SDS011;10957;50.968;6.828;2023-04-24T03:04:51;3.05;;;2.95;;
21589;SDS011;10957;50.968;6.828;2023-04-24T03:09:52;3.10;;;3.00;;
21589;SDS011;10957;50.968;6.828;2023-04-24T03:14:54;3.50;;;3.40;;
21589;SDS011;10957;50.968;6.828;2023-04-24T03:19:55;4.40;;;4.10;;
21589;SDS011;10957;50.968;6.828;2023-04-24T03:24:57;3.00;;;2.90;;
21589;SDS011;10957;50.968;6.828;2023-04-24T03:29:58;3.50;;;3.30;;
21589;SDS011;10957;50.968;6.828;2023-04-24T03:35:07;3.00;;;2.90;;
21589;SDS011;10957;50.968;6.828;2023-04-24T03:40:09;2.95;;;2.85;;
21589;SDS011;10957;50.968;6.828;2023-04-24T03:45:12;2.60;;;2.50;;
21589;SDS011;10957;50.968;6.828;2023-04-24T03:50:17;2.72;;;2.63;;
21589;SDS011;10957;50.968;6.828;2023-04-24T03:55:19;2.40;;;2.30;;
21589;SDS011;10957;50.968;6.828;2023-04-24T04:00:22;2.65;;;2.55;;
21589;SDS011;10957;50.968;6.828;2023-04-24T04:05:35;2.30;;;2.20;;
21589;SDS011;10957;50.968;6.828;2023-04-24T04:10:36;2.67;;;2.58;;
21589;SDS011;10957;50.968;6.828;2023-04-24T04:15:39;2.72;;;2.63;;
21589;SDS011;10957;50.968;6.828;2023-04-24T04:20:40;2.90;;;2.80;;
21589;SDS011;10957;50.968;6.828;2023-04-24T04:25:43;3.70;;;3.38;;
21589;SDS011;10957;50.968;6.828;2023-04-24T04:30:45;2.25;;;2.15;;
21589;SDS011;10957;50.968;6.828;2023-04-24T04:35:48;2.40;;;2.30;;
21589;SDS011;10957;50.968;6.828;2023-04-24T04:40:50;2.78;;;2.67;;
21589;SDS011;10957;50.968;6.828;2023-04-24T04:45:53;2.20;;;2.10;;
21589;SDS011;10957;50.968;6.828;2023-04-24T04:51:16;2.45;;;2.35;;
21589;SDS011;10957;50.968;6.828;2023-04-24T04:56:18;2.40;;;2.30;;
21589;SDS011;10957;50.968;6.828;2023-04-24T05:01:20;2.30;;;2.20;;
21589;SDS011;10957;50.968;6.828;2023-04-24T05:06:24;2.58;;;2.47;;
21589;SDS011;10957;50.968;6.828;2023-04-24T05:11:27;2.25;;;2.15;;
21589;SDS011;10957;50.968;6.828;2023-04-24T05:16:31;2.40;;;2.30;;
21589;SDS011;10957;50.968;6.828;2023-04-24T05:21:32;2.20;;;2.10;;
21589;SDS011;10957;50.968;6.828;2023-04-24T05:26:34;2.55;;;2.45;;
21589;SDS011;10957;50.968;6.828;2023-04-24T05:31:36;2.00;;;1.90;;
21589;SDS011;10957;50.968;6.828;2023-04-24T05:36:38;2.10;;;2.00;;
21589;SDS011;10957;50.968;6.828;2023-04-24T05:41:39;2.25;;;2.15;;
21589;SDS011;10957;50.968;6.828;2023-04-24T05:46:41;2.20;;;2.10;;
21589;SDS011;10957;50.968;6.828;2023-04-24T05:51:44;2.50;;;2.40;;
21589;SDS011;10957;50.968;6.828;2023-04-24T05:56:46;2.45;;;2.35;;
21589;SDS011;10957;50.968;6.828;2023-04-24T06:01:53;2.47;;;2.38;;
21589;SDS011;10957;50.968;6.828;2023-04-24T06:06:56;2.88;;;2.75;;
21589;SDS011;10957;50.968;6.828;2023-04-24T06:11:57;2.40;;;2.20;;
21589;SDS011;10957;50.968;6.828;2023-04-24T06:17:05;2.55;;;2.45;;
21589;SDS011;10957;50.968;6.828;2023-04-24T06:22:11;2.38;;;2.28;;
21589;SDS011;10957;50.968;6.828;2023-04-24T06:27:12;2.33;;;2.22;;
21589;SDS011;10957;50.968;6.828;2023-04-24T06:32:15;2.38;;;2.28;;
21589;SDS011;10957;50.968;6.828;2023-04-24T06:37:16;2.58;;;2.47;;
21589;SDS011;10957;50.968;6.828;2023-04-24T06:42:18;2.60;;;2.50;;
21589;SDS011;10957;50.968;6.828;2023-04-24T06:47:23;2.85;;;2.75;;
21589;SDS011;10957;50.968;6.828;2023-04-24T06:52:25;2.80;;;2.70;;
21589;SDS011;10957;50.968;6.828;2023-04-24T06:57:26;2.88;;;2.78;;
21589;SDS011;10957;50.968;6.828;2023-04-24T07:02:28;3.33;;;3.13;;
21589;SDS011;10957;50.968;6.828;2023-04-24T07:07:29;3.10;;;3.00;;
21589;SDS011;10957;50.968;6.828;2023-04-24T07:12:30;3.20;;;3.10;;
21589;SDS011;10957;50.968;6.828;2023-04-24T07:17:32;3.20;;;3.10;;
21589;SDS011;10957;50.968;6.828;2023-04-24T07:22:33;4.13;;;3.83;;
21589;SDS011;10957;50.968;6.828;2023-04-24T07:27:35;3.20;;;3.10;;
21589;SDS011;10957;50.968;6.828;2023-04-24T07:32:36;3.78;;;3.67;;
21589;SDS011;10957;50.968;6.828;2023-04-24T07:37:38;3.40;;;3.30;;
21589;SDS011;10957;50.968;6.828;2023-04-24T07:42:39;3.72;;;3.63;;
21589;SDS011;10957;50.968;6.828;2023-04-24T07:47:41;3.50;;;3.40;;
21589;SDS011;10957;50.968;6.828;2023-04-24T07:52:44;3.70;;;3.60;;
21589;SDS011;10957;50.968;6.828;2023-04-24T07:57:45;3.50;;;3.40;;
21589;SDS011;10957;50.968;6.828;2023-04-24T08:02:47;3.65;;;3.55;;
21589;SDS011;10957;50.968;6.828;2023-04-24T08:07:48;3.50;;;3.40;;
21589;SDS011;10957;50.968;6.828;2023-04-24T08:12:51;3.60;;;3.50;;
21589;SDS011;10957;50.968;6.828;2023-04-24T08:17:52;3.80;;;3.70;;
21589;SDS011;10957;50.968;6.828;2023-04-24T08:22:53;3.40;;;3.30;;
21589;SDS011;10957;50.968;6.828;2023-04-24T08:27:55;3.42;;;3.33;;
21589;SDS011;10957;50.968;6.828;2023-04-24T08:32:57;3.50;;;3.40;;
21589;SDS011;10957;50.968;6.828;2023-04-24T08:37:58;4.38;;;3.97;;
21589;SDS011;10957;50.968;6.828;2023-04-24T08:43:00;3.60;;;3.40;;
21589;SDS011;10957;50.968;6.828;2023-04-24T08:48:01;3.30;;;3.20;;
21589;SDS011;10957;50.968;6.828;2023-04-24T08:53:05;3.30;;;3.20;;
21589;SDS011;10957;50.968;6.828;2023-04-24T08:58:08;3.15;;;3.05;;
21589;SDS011;10957;50.968;6.828;2023-04-24T09:03:09;3.65;;;3.42;;
21589;SDS011;10957;50.968;6.828;2023-04-24T09:08:11;3.30;;;3.20;;
21589;SDS011;10957;50.968;6.828;2023-04-24T09:13:14;3.00;;;2.90;;
21589;SDS011;10957;50.968;6.828;2023-04-24T09:18:16;3.05;;;2.95;;
21589;SDS011;10957;50.968;6.828;2023-04-24T09:23:18;3.10;;;3.00;;
21589;SDS011;10957;50.968;6.828;2023-04-24T09:28:19;3.30;;;3.20;;
21589;SDS011;10957;50.968;6.828;2023-04-24T09:33:26;3.30;;;3.20;;
21589;SDS011;10957;50.968;6.828;2023-04-24T09:38:35;3.00;;;2.90;;
21589;SDS011;10957;50.968;6.828;2023-04-24T09:43:37;4.35;;;4.05;;
21589;SDS011;10957;50.968;6.828;2023-04-24T09:48:39;3.30;;;3.20;;
21589;SDS011;10957;50.968;6.828;2023-04-24T09:53:45;3.35;;;3.25;;
21589;SDS011;10957;50.968;6.828;2023-04-24T09:58:50;3.60;;;3.50;;
21589;SDS011;10957;50.968;6.828;2023-04-24T10:03:51;3.53;;;3.33;;
21589;SDS011;10957;50.968;6.828;2023-04-24T10:08:52;3.70;;;3.60;;
21589;SDS011;10957;50.968;6.828;2023-04-24T10:13:53;3.60;;;3.50;;
21589;SDS011;10957;50.968;6.828;2023-04-24T10:18:57;3.30;;;3.20;;
21589;SDS011;10957;50.968;6.828;2023-04-24T10:24:00;3.67;;;3.58;;
21589;SDS011;10957;50.968;6.828;2023-04-24T10:29:04;3.65;;;3.50;;
21589;SDS011;10957;50.968;6.828;2023-04-24T10:34:10;3.67;;;3.55;;
21589;SDS011;10957;50.968;6.828;2023-04-24T10:39:12;3.10;;;3.00;;
21589;SDS011;10957;50.968;6.828;2023-04-24T10:44:18;3.20;;;3.10;;
21589;SDS011;10957;50.968;6.828;2023-04-24T10:49:29;3.38;;;3.28;;
21589;SDS011;10957;50.968;6.828;2023-04-24T10:59:45;3.10;;;3.00;;
21589;SDS011;10957;50.968;6.828;2023-04-24T11:04:48;3.05;;;2.95;;
21589;SDS011;10957;50.968;6.828;2023-04-24T11:09:57;4.07;;;3.88;;
21589;SDS011;10957;50.968;6.828;2023-04-24T11:15:01;3.25;;;3.15;;
21589;SDS011;10957;50.968;6.828;2023-04-24T11:20:06;3.47;;;3.35;;
21589;SDS011;10957;50.968;6.828;2023-04-24T11:25:12;2.78;;;2.67;;
21589;SDS011;10957;50.968;6.828;2023-04-24T11:30:18;3.10;;;3.00;;
21589;SDS011;10957;50.968;6.828;2023-04-24T11:35:21;3.40;;;3.30;;
21589;SDS011;10957;50.968;6.828;2023-04-24T11:40:25;3.47;;;3.17;;
21589;SDS011;10957;50.968;6.828;2023-04-24T11:45:28;4.53;;;4.22;;
21589;SDS011;10957;50.968;6.828;2023-04-24T11:50:30;3.60;;;3.50;;
21589;SDS011;10957;50.968;6.828;2023-04-24T11:55:31;3.58;;;3.47;;
21589;SDS011;10957;50.968;6.828;2023-04-24T12:00:33;3.90;;;3.78;;
21589;SDS011;10957;50.968;6.828;2023-04-24T12:05:34;3.10;;;3.00;;
21589;SDS011;10957;50.968;6.828;2023-04-24T12:10:36;3.30;;;3.20;;
21589;SDS011;10957;50.968;6.828;2023-04-24T12:15:39;3.83;;;3.67;;
21589;SDS011;10957;50.968;6.828;2023-04-24T12:20:41;3.20;;;3.10;;
21589;SDS011;10957;50.968;6.828;2023-04-24T12:25:42;3.10;;;3.00;;
21589;SDS011;10957;50.968;6.828;2023-04-24T12:30:44;3.20;;;3.10;;
21589;SDS011;10957;50.968;6.828;2023-04-24T12:35:51;3.10;;;3.00;;
21589;SDS011;10957;50.968;6.828;2023-04-24T12:41:04;2.78;;;2.67;;
21589;SDS011;10957;50.968;6.828;2023-04-24T12:46:07;3.08;;;2.97;;
21589;SDS011;10957;50.968;6.828;2023-04-24T12:51:08;3.70;;;3.50;;
21589;SDS011;10957;50.968;6.828;2023-04-24T12:56:09;3.53;;;3.42;;
21589;SDS011;10957;50.968;6.828;2023-04-24T13:01:11;4.65;;;4.45;;
21589;SDS011;10957;50.968;6.828;2023-04-24T13:06:12;4.25;;;3.97;;
21589;SDS011;10957;50.968;6.828;2023-04-24T13:11:13;3.00;;;2.90;;
21589;SDS011;10957;50.968;6.828;2023-04-24T13:16:15;3.70;;;3.60;;
21589;SDS011;10957;50.968;6.828;2023-04-24T13:21:16;2.90;;;2.80;;
21589;SDS011;10957;50.968;6.828;2023-04-24T13:26:17;3.10;;;3.00;;
21589;SDS011;10957;50.968;6.828;2023-04-24T13:31:18;3.10;;;3.00;;
21589;SDS011;10957;50.968;6.828;2023-04-24T13:36:20;3.30;;;3.20;;
21589;SDS011;10957;50.968;6.828;2023-04-24T13:41:21;3.50;;;3.40;;
21589;SDS011;10957;50.968;6.828;2023-04-24T13:46:22;2.90;;;2.80;;
21589;SDS011;10957;50.968;6.828;2023-04-24T13:51:25;3.35;;;3.20;;
21589;SDS011;10957;50.968;6.828;2023-04-24T13:56:29;2.97;;;2.88;;
21589;SDS011;10957;50.968;6.828;2023-04-24T14:01:31;3.40;;;3.30;;
21589;SDS011;10957;50.968;6.828;2023-04-24T14:06:35;3.25;;;3.15;;
21589;SDS011;10957;50.968;6.828;2023-04-24T14:11:37;3.20;;;3.10;;
21589;SDS011;10957;50.968;6.828;2023-04-24T14:16:38;3.20;;;3.10;;
21589;SDS011;10957;50.968;6.828;2023-04-24T14:21:40;3.53;;;3.30;;
21589;SDS011;10957;50.968;6.828;2023-04-24T14:26:41;3.50;;;3.40;;
21589;SDS011;10957;50.968;6.828;2023-04-24T14:31:42;4.35;;;4.05;;
21589;SDS011;10957;50.968;6.828;2023-04-24T14:36:43;3.40;;;3.30;;
21589;SDS011;10957;50.968;6.828;2023-04-24T14:41:45;3.65;;;3.55;;
21589;SDS011;10957;50.968;6.828;2023-04-24T14:46:46;3.50;;;3.40;;
21589;SDS011;10957;50.968;6.828;2023-04-24T14:51:47;3.50;;;3.40;;
21589;SDS011;10957;50.968;6.828;2023-04-24T14:56:48;4.20;;;4.00;;
21589;SDS011;10957;50.968;6.828;2023-04-24T15:01:50;3.72;;;3.63;;
21589;SDS011;10957;50.968;6.828;2023-04-24T15:06:53;3.88;;;3.78;;
21589;SDS011;10957;50.968;6.828;2023-04-24T15:11:55;3.50;;;3.40;;
21589;SDS011;10957;50.968;6.828;2023-04-24T15:16:58;4.45;;;4.03;;
21589;SDS011;10957;50.968;6.828;2023-04-24T15:21:59;3.90;;;3.80;;
21589;SDS011;10957;50.968;6.828;2023-04-24T15:27:00;3.90;;;3.80;;
21589;SDS011;10957;50.968;6.828;2023-04-24T15:32:02;4.20;;;4.00;;
21589;SDS011;10957;50.968;6.828;2023-04-24T15:37:03;4.15;;;3.88;;
21589;SDS011;10957;50.968;6.828;2023-04-24T15:42:04;4.03;;;3.78;;
21589;SDS011;10957;50.968;6.828;2023-04-24T15:47:05;3.50;;;3.40;;
21589;SDS011;10957;50.968;6.828;2023-04-24T15:52:07;3.60;;;3.50;;
21589;SDS011;10957;50.968;6.828;2023-04-24T15:57:10;4.03;;;3.83;;
21589;SDS011;10957;50.968;6.828;2023-04-24T16:02:13;3.53;;;3.42;;
21589;SDS011;10957;50.968;6.828;2023-04-24T16:07:20;4.07;;;3.92;;
21589;SDS011;10957;50.968;6.828;2023-04-24T16:12:22;3.75;;;3.65;;
21589;SDS011;10957;50.968;6.828;2023-04-24T16:17:27;3.30;;;3.20;;
21589;SDS011;10957;50.968;6.828;2023-04-24T16:22:28;3.20;;;3.10;;
21589;SDS011;10957;50.968;6.828;2023-04-24T16:27:31;3.30;;;3.20;;
21589;SDS011;10957;50.968;6.828;2023-04-24T16:32:33;4.45;;;4.15;;
21589;SDS011;10957;50.968;6.828;2023-04-24T16:37:34;3.78;;;3.60;;
21589;SDS011;10957;50.968;6.828;2023-04-24T16:42:36;3.83;;;3.63;;
21589;SDS011;10957;50.968;6.828;2023-04-24T16:47:37;3.00;;;2.90;;
21589;SDS011;10957;50.968;6.828;2023-04-24T16:52:39;3.20;;;3.10;;
21589;SDS011;10957;50.968;6.828;2023-04-24T16:57:40;3.55;;;3.40;;
21589;SDS011;10957;50.968;6.828;2023-04-24T17:02:41;3.42;;;3.25;;
21589;SDS011;10957;50.968;6.828;2023-04-24T17:07:44;3.10;;;3.00;;
21589;SDS011;10957;50.968;6.828;2023-04-24T17:12:45;3.20;;;3.10;;
21589;SDS011;10957;50.968;6.828;2023-04-24T17:17:47;3.30;;;3.20;;
21589;SDS011;10957;50.968;6.828;2023-04-24T17:22:49;3.00;;;2.90;;
21589;SDS011;10957;50.968;6.828;2023-04-24T17:27:50;4.30;;;4.10;;
21589;SDS011;10957;50.968;6.828;2023-04-24T17:32:52;3.90;;;3.70;;
21589;SDS011;10957;50.968;6.828;2023-04-24T17:37:53;2.90;;;2.80;;
21589;SDS011;10957;50.968;6.828;2023-04-24T17:42:54;3.17;;;3.08;;
21589;SDS011;10957;50.968;6.828;2023-04-24T17:47:55;3.20;;;3.10;;
21589;SDS011;10957;50.968;6.828;2023-04-24T17:52:57;3.00;;;2.90;;
21589;SDS011;10957;50.968;6.828;2023-04-24T17:57:58;3.10;;;3.00;;
21589;SDS011;10957;50.968;6.828;2023-04-24T18:03:03;2.95;;;2.85;;
21589;SDS011;10957;50.968;6.828;2023-04-24T18:08:05;2.90;;;2.80;;
21589;SDS011;10957;50.968;6.828;2023-04-24T18:13:07;3.03;;;2.92;;
21589;SDS011;10957;50.968;6.828;2023-04-24T18:18:09;3.30;;;3.20;;
21589;SDS011;10957;50.968;6.828;2023-04-24T18:23:11;3.00;;;2.90;;
21589;SDS011;10957;50.968;6.828;2023-04-24T18:28:12;3.10;;;3.00;;
21589;SDS011;10957;50.968;6.828;2023-04-24T18:33:13;3.20;;;3.10;;
21589;SDS011;10957;50.968;6.828;2023-04-24T18:38:15;3.35;;;3.25;;
21589;SDS011;10957;50.968;6.828;2023-04-24T18:43:16;3.20;;;3.10;;
21589;SDS011;10957;50.968;6.828;2023-04-24T18:48:17;3.13;;;3.03;;
21589;SDS011;10957;50.968;6.828;2023-04-24T18:53:19;3.20;;;3.10;;
21589;SDS011;10957;50.968;6.828;2023-04-24T18:58:20;3.42;;;3.33;;
21589;SDS011;10957;50.968;6.828;2023-04-24T19:03:21;4.85;;;4.57;;
21589;SDS011;10957;50.968;6.828;2023-04-24T19:08:22;3.13;;;3.03;;
21589;SDS011;10957;50.968;6.828;2023-04-24T19:13:24;3.97;;;3.83;;
21589;SDS011;10957;50.968;6.828;2023-04-24T19:18:25;3.53;;;3.42;;
21589;SDS011;10957;50.968;6.828;2023-04-24T19:23:28;3.20;;;3.10;;
21589;SDS011;10957;50.968;6.828;2023-04-24T19:28:30;2.90;;;2.80;;
21589;SDS011;10957;50.968;6.828;2023-04-24T19:33:32;3.30;;;3.20;;
21589;SDS011;10957;50.968;6.828;2023-04-24T19:38:33;2.90;;;2.80;;
21589;SDS011;10957;50.968;6.828;2023-04-24T19:43:34;3.20;;;3.10;;
21589;SDS011;10957;50.968;6.828;2023-04-24T19:48:35;3.20;;;3.10;;
21589;SDS011;10957;50.968;6.828;2023-04-24T19:53:36;3.20;;;3.10;;
21589;SDS011;10957;50.968;6.828;2023-04-24T19:58:37;3.00;;;2.90;;
21589;SDS011;10957;50.968;6.828;2023-04-24T20:03:39;3.58;;;3.40;;
21589;SDS011;10957;50.968;6.828;2023-04-24T20:08:40;3.08;;;2.97;;
21589;SDS011;10957;50.968;6.828;2023-04-24T20:13:42;3.00;;;2.90;;
21589;SDS011;10957;50.968;6.828;2023-04-24T20:18:43;2.80;;;2.70;;
21589;SDS011;10957;50.968;6.828;2023-04-24T20:23:44;2.90;;;2.80;;
21589;SDS011;10957;50.968;6.828;2023-04-24T20:28:46;3.35;;;3.10;;
21589;SDS011;10957;50.968;6.828;2023-04-24T20:33:47;3.10;;;3.00;;
21589;SDS011;10957;50.968;6.828;2023-04-24T20:38:48;2.80;;;2.70;;
21589;SDS011;10957;50.968;6.828;2023-04-24T20:43:49;2.90;;;2.80;;
21589;SDS011;10957;50.968;6.828;2023-04-24T20:48:50;3.10;;;3.00;;
21589;SDS011;10957;50.968;6.828;2023-04-24T20:53:51;3.20;;;3.10;;
21589;SDS011;10957;50.968;6.828;2023-04-24T20:58:53;3.20;;;3.10;;
21589;SDS011;10957;50.968;6.828;2023-04-24T21:03:54;3.30;;;3.20;;
21589;SDS011;10957;50.968;6.828;2023-04-24T21:08:55;3.10;;;3.00;;
21589;SDS011;10957;50.968;6.828;2023-04-24T21:13:57;3.17;;;3.08;;
21589;SDS011;10957;50.968;6.828;2023-04-24T21:18:58;3.55;;;3.35;;
21589;SDS011;10957;50.968;6.828;2023-04-24T21:23:59;3.20;;;3.10;;
21589;SDS011;10957;50.968;6.828;2023-04-24T21:29:01;5.30;;;4.88;;
21589;SDS011;10957;50.968;6.828;2023-04-24T21:34:03;3.20;;;3.10;;
21589;SDS011;10957;50.968;6.828;2023-04-24T21:39:04;3.78;;;3.60;;
21589;SDS011;10957;50.968;6.828;2023-04-24T21:44:05;3.40;;;3.30;;
21589;SDS011;10957;50.968;6.828;2023-04-24T21:49:06;3.30;;;3.20;;
21589;SDS011;10957;50.968;6.828;2023-04-24T21:54:08;3.60;;;3.50;;
21589;SDS011;10957;50.968;6.828;2023-04-24T21:59:09;3.70;;;3.60;;
21589;SDS011;10957;50.968;6.828;2023-04-24T22:04:10;4.32;;;4.13;;
21589;SDS011;10957;50.968;6.828;2023-04-24T22:09:11;3.65;;;3.55;;
21589;SDS011;10957;50.968;6.828;2023-04-24T22:14:13;3.30;;;3.20;;
21589;SDS011;10957;50.968;6.828;2023-04-24T22:19:14;3.53;;;3.42;;
21589;SDS011;10957;50.968;6.828;2023-04-24T22:24:16;4.13;;;3.92;;
21589;SDS011;10957;50.968;6.828;2023-04-24T22:29:18;3.50;;;3.40;;
21589;SDS011;10957;50.968;6.828;2023-04-24T22:34:23;3.40;;;3.30;;
21589;SDS011;10957;50.968;6.828;2023-04-24T22:39:24;4.05;;;3.78;;
21589;SDS011;10957;50.968;6.828;2023-04-24T22:44:28;3.50;;;3.40;;
21589;SDS011;10957;50.968;6.828;2023-04-24T22:49:30;3.70;;;3.60;;
21589;SDS011;10957;50.968;6.828;2023-04-24T22:54:33;3.40;;;3.30;;
21589;SDS011;10957;50.968;6.828;2023-04-24T22:59:35;4.00;;;3.80;;
21589;SDS011;10957;50.968;6.828;2023-04-24T23:04:36;4.10;;;3.90;;
21589;SDS011;10957;50.968;6.828;2023-04-24T23:09:37;3.88;;;3.78;;
21589;SDS011;10957;50.968;6.828;2023-04-24T23:14:39;3.65;;;3.55;;
21589;SDS011;10957;50.968;6.828;2023-04-24T23:19:40;5.97;;;4.13;;
21589;SDS011;10957;50.968;6.828;2023-04-24T23:24:41;3.70;;;3.60;;
21589;SDS011;10957;50.968;6.828;2023-04-24T23:29:42;3.80;;;3.70;;
21589;SDS011;10957;50.968;6.828;2023-04-24T23:34:44;3.90;;;3.80;;
21589;SDS011;10957;50.968;6.828;2023-04-24T23:39:45;4.93;;;4.63;;
21589;SDS011;10957;50.968;6.828;2023-04-24T23:44:46;4.03;;;3.85;;
21589;SDS011;10957;50.968;6.828;2023-04-24T23:49:47;4.20;;;4.00;;
21589;SDS011;10957;50.968;6.828;2023-04-24T23:54:48;3.72;;;3.63;;
21589;SDS011;10957;50.968;6.828;2023-04-24T23:59:50;3.50;;;3.40;;
